Time;durP1;ratioP1;P1;durP2;ratioP2;P2;SDS_P1;SDS_P2;PMS_P1;PMS_P2;Temp;Humidity;BMP_temperature;BMP_pressure;BME280_temperature;BME280_humidity;BME280_pressure;Samples;Min_cycle;Max_cycle;Signal;HPM_P1;HPM_P2
2023/05/17 00:00:50;;;;;;;8.02;2.72;;;7.70;1.00;;;;;;7365890;19;20382;-71
2023/05/17 00:03:20;;;;;;;7.40;2.67;;;7.70;1.00;;;;;;7368873;19;20024;-71
2023/05/17 00:05:50;;;;;;;6.75;2.10;;;7.70;1.00;;;;;;7368720;19;20007;-71
2023/05/17 00:08:20;;;;;;;7.70;2.30;;;7.70;1.00;;;;;;7368845;19;20483;-73
2023/05/17 00:10:52;;;;;;;3.42;1.80;;;7.60;1.00;;;;;;7387026;19;20074;-71
2023/05/17 00:13:22;;;;;;;8.20;2.20;;;7.60;1.00;;;;;;7367585;19;20006;-71
2023/05/17 00:15:52;;;;;;;5.60;2.00;;;7.60;1.00;;;;;;7368015;19;20034;-71
2023/05/17 00:18:22;;;;;;;5.57;1.73;;;7.60;1.00;;;;;;7368872;19;20395;-71
2023/05/17 00:20:52;;;;;;;5.32;1.67;;;7.50;1.00;;;;;;7365113;19;20114;-72
2023/05/17 00:23:22;;;;;;;3.28;1.58;;;7.50;1.00;;;;;;7367441;19;20042;-71
2023/05/17 00:25:54;;;;;;;4.32;1.90;;;7.50;1.00;;;;;;7386517;19;20093;-71
2023/05/17 00:28:24;;;;;;;6.03;1.90;;;7.40;1.00;;;;;;7367955;19;20090;-71
2023/05/17 00:30:54;;;;;;;4.82;1.75;;;7.30;1.00;;;;;;7364478;19;20102;-71
2023/05/17 00:33:24;;;;;;;5.05;1.83;;;7.30;1.00;;;;;;7366454;19;20196;-72
2023/05/17 00:35:54;;;;;;;7.45;1.73;;;7.30;1.00;;;;;;7366684;19;20014;-72
2023/05/17 00:38:24;;;;;;;4.18;1.98;;;7.20;1.00;;;;;;7367526;19;20010;-71
2023/05/17 00:40:57;;;;;;;3.95;2.00;;;7.30;1.00;;;;;;7386212;19;20053;-73
2023/05/17 00:43:27;;;;;;;3.80;1.90;;;7.20;1.00;;;;;;7366852;19;20010;-72
2023/05/17 00:45:56;;;;;;;6.13;2.08;;;7.20;1.00;;;;;;7365490;19;20078;-72
2023/05/17 00:48:27;;;;;;;4.68;2.28;;;7.20;1.00;;;;;;7366397;19;20465;-72
2023/05/17 00:50:57;;;;;;;8.93;2.38;;;7.10;1.00;;;;;;7364259;19;20018;-72
2023/05/17 00:53:28;;;;;;;4.38;2.05;;;7.10;1.00;;;;;;7366479;19;20018;-72
2023/05/17 00:56:02;;;;;;;4.53;2.08;;;7.10;1.00;;;;;;7388804;19;20025;-72
2023/05/17 00:58:32;;;;;;;3.63;1.70;;;7.00;1.00;;;;;;7366113;19;20011;-72
2023/05/17 01:01:03;;;;;;;4.38;1.80;;;7.00;1.00;;;;;;7364870;19;20038;-72
2023/05/17 01:03:33;;;;;;;5.55;2.22;;;7.00;1.00;;;;;;7366878;19;20014;-72
2023/05/17 01:06:03;;;;;;;5.10;1.77;;;7.00;1.00;;;;;;7365207;19;20379;-72
2023/05/17 01:08:34;;;;;;;4.57;1.88;;;7.00;1.00;;;;;;7365744;19;20019;-72
2023/05/17 01:11:15;;;;;;;4.00;1.80;;;7.00;1.00;;;;;;7361668;19;20044;-72
2023/05/17 01:13:55;;;;;;;3.40;1.70;;;7.00;1.00;;;;;;7388809;19;20010;-72
2023/05/17 01:16:31;;;;;;;5.18;1.88;;;7.00;1.00;;;;;;7366221;19;20015;-72
2023/05/17 01:19:14;;;;;;;7.07;1.58;;;7.00;1.00;;;;;;7364120;19;20019;-72
2023/05/17 01:22:00;;;;;;;4.40;1.92;;;7.00;1.00;;;;;;7365553;19;20010;-72
2023/05/17 01:24:35;;;;;;;5.00;1.63;;;6.90;1.00;;;;;;7366500;19;20344;-72
2023/05/17 01:27:09;;;;;;;4.00;2.00;;;7.00;1.00;;;;;;7364479;19;20074;-72
2023/05/17 01:29:41;;;;;;;3.33;1.88;;;6.90;1.00;;;;;;7363976;19;20018;-72
2023/05/17 01:32:11;;;;;;;6.45;1.70;;;7.00;1.00;;;;;;7369892;19;20038;-72
2023/05/17 01:34:43;;;;;;;5.88;2.25;;;7.00;1.00;;;;;;7394986;19;20010;-72
2023/05/17 01:37:13;;;;;;;3.08;1.75;;;7.00;1.00;;;;;;7372997;19;20010;-72
2023/05/17 01:39:43;;;;;;;8.20;2.25;;;7.00;1.00;;;;;;7370814;19;20034;-72
2023/05/17 01:42:23;;;;;;;5.88;2.15;;;6.90;1.00;;;;;;7373979;19;20018;-72
2023/05/17 01:45:01;;;;;;;6.07;2.40;;;6.90;1.00;;;;;;7371715;19;20074;-72
2023/05/17 01:47:44;;;;;;;4.28;1.92;;;6.90;1.00;;;;;;7370644;19;20015;-72
2023/05/17 01:50:16;;;;;;;3.92;1.92;;;6.90;1.00;;;;;;7369768;19;20042;-72
2023/05/17 01:52:51;;;;;;;3.30;1.88;;;6.80;1.00;;;;;;7395680;19;20038;-72
2023/05/17 01:55:27;;;;;;;3.72;1.77;;;6.80;1.00;;;;;;7372111;19;20048;-72
2023/05/17 01:58:03;;;;;;;6.22;1.90;;;6.80;1.00;;;;;;7371915;19;20046;-72
2023/05/17 02:00:33;;;;;;;4.40;1.70;;;6.80;1.00;;;;;;7370116;19;20014;-72
2023/05/17 02:03:03;;;;;;;5.85;1.90;;;6.80;1.00;;;;;;7373786;19;20018;-72
2023/05/17 02:05:33;;;;;;;2.50;1.60;;;6.90;1.00;;;;;;7371475;19;20046;-72
2023/05/17 02:08:03;;;;;;;2.75;1.80;;;6.90;1.00;;;;;;7373268;19;20386;-71
2023/05/17 02:10:33;;;;;;;3.88;1.70;;;6.90;1.00;;;;;;7390201;19;20018;-72
2023/05/17 02:13:06;;;;;;;5.55;1.92;;;6.90;1.00;;;;;;7372362;19;20011;-72
2023/05/17 02:15:36;;;;;;;3.85;1.77;;;6.90;1.00;;;;;;7371529;19;20907;-71
2023/05/17 02:18:06;;;;;;;6.80;1.90;;;6.90;1.00;;;;;;7371105;19;20011;-71
2023/05/17 02:20:37;;;;;;;4.78;1.70;;;6.90;1.00;;;;;;7368602;19;20021;-71
2023/05/17 02:23:07;;;;;;;3.40;1.50;;;6.90;1.00;;;;;;7372358;19;20018;-72
2023/05/17 02:25:37;;;;;;;4.18;1.80;;;6.80;1.00;;;;;;7392516;19;20031;-72
2023/05/17 02:28:09;;;;;;;4.90;1.92;;;6.90;1.00;;;;;;7371394;19;20014;-72
2023/05/17 02:30:40;;;;;;;5.78;2.40;;;6.80;1.00;;;;;;7368790;19;20040;-71
2023/05/17 02:33:12;;;;;;;7.10;1.83;;;6.80;1.00;;;;;;7372805;19;20030;-71
2023/05/17 02:35:42;;;;;;;4.80;1.98;;;6.80;1.00;;;;;;7370759;19;20086;-71
2023/05/17 02:38:12;;;;;;;4.95;2.00;;;6.80;1.00;;;;;;7370591;19;20053;-71
2023/05/17 02:40:43;;;;;;;5.82;2.00;;;6.80;1.00;;;;;;7390487;19;20034;-71
2023/05/17 02:43:15;;;;;;;11.18;1.98;;;6.80;1.00;;;;;;7368222;19;20014;-71
2023/05/17 02:45:46;;;;;;;5.22;1.52;;;6.80;1.00;;;;;;7370424;19;20014;-72
2023/05/17 02:48:16;;;;;;;3.83;1.70;;;6.80;1.00;;;;;;7370465;19;20082;-71
2023/05/17 02:50:45;;;;;;;3.45;1.67;;;6.80;1.00;;;;;;7367745;19;20494;-72
2023/05/17 02:53:15;;;;;;;6.78;1.77;;;6.70;1.00;;;;;;7371642;19;20553;-71
2023/05/17 02:55:45;;;;;;;10.93;1.80;;;6.70;1.00;;;;;;7391765;19;20010;-71
2023/05/17 02:58:18;;;;;;;4.38;1.90;;;6.70;1.00;;;;;;7370354;19;20454;-71
2023/05/17 03:00:48;;;;;;;7.30;2.13;;;6.70;1.00;;;;;;7368515;19;20013;-72
2023/05/17 03:03:18;;;;;;;5.20;2.08;;;6.70;1.00;;;;;;7371557;19;20009;-71
2023/05/17 03:05:48;;;;;;;2.60;1.95;;;6.70;1.00;;;;;;7370675;19;20374;-72
2023/05/17 03:08:18;;;;;;;3.47;1.70;;;6.70;1.00;;;;;;7368355;19;20398;-71
2023/05/17 03:10:50;;;;;;;4.57;1.90;;;6.60;1.00;;;;;;7388444;19;20014;-71
2023/05/17 03:13:22;;;;;;;3.72;1.85;;;6.60;1.00;;;;;;7371077;19;20010;-71
2023/05/17 03:15:52;;;;;;;5.10;2.13;;;6.60;1.00;;;;;;7370841;19;20014;-72
2023/05/17 03:18:22;;;;;;;3.83;1.75;;;6.60;1.00;;;;;;7368920;19;20584;-71
2023/05/17 03:20:52;;;;;;;5.57;2.38;;;6.60;1.00;;;;;;7367798;19;20018;-71
2023/05/17 03:23:22;;;;;;;9.02;2.55;;;6.50;1.00;;;;;;7370103;19;19995;-71
2023/05/17 03:25:52;;;;;;;5.13;2.33;;;6.40;1.00;;;;;;7392569;19;20022;-71
2023/05/17 03:28:25;;;;;;;6.57;2.42;;;6.30;1.00;;;;;;7367310;19;20011;-71
2023/05/17 03:30:55;;;;;;;6.28;1.80;;;6.30;1.00;;;;;;7367101;19;20021;-71
2023/05/17 03:33:25;;;;;;;5.65;2.60;;;6.30;1.00;;;;;;7369296;19;20011;-72
2023/05/17 03:35:55;;;;;;;6.38;2.08;;;6.30;1.00;;;;;;7369909;19;20718;-72
2023/05/17 03:38:25;;;;;;;6.95;2.13;;;6.30;1.00;;;;;;7368752;19;20018;-71
2023/05/17 03:40:55;;;;;;;6.38;2.70;;;6.40;1.00;;;;;;7388896;19;20015;-72
2023/05/17 03:43:28;;;;;;;5.57;2.22;;;6.40;1.00;;;;;;7368474;19;20021;-72
2023/05/17 03:45:58;;;;;;;4.47;1.92;;;6.40;1.00;;;;;;7368598;19;20401;-72
2023/05/17 03:48:28;;;;;;;7.43;2.15;;;6.40;1.00;;;;;;7367515;19;20011;-72
2023/05/17 03:50:58;;;;;;;4.38;2.50;;;6.40;1.00;;;;;;7367076;19;20424;-72
2023/05/17 03:53:28;;;;;;;6.65;3.03;;;6.40;1.00;;;;;;7367426;19;20031;-72
2023/05/17 03:55:57;;;;;;;4.75;2.50;;;6.30;1.00;;;;;;7389216;19;20021;-72
2023/05/17 03:58:30;;;;;;;5.50;2.30;;;6.40;1.00;;;;;;7367824;19;20015;-72
2023/05/17 04:01:00;;;;;;;4.95;2.50;;;6.40;1.00;;;;;;7367252;19;20078;-71
2023/05/17 04:03:30;;;;;;;6.53;2.40;;;6.40;1.00;;;;;;7368746;19;20015;-72
2023/05/17 04:06:05;;;;;;;7.15;2.60;;;6.40;1.00;;;;;;7368276;19;20017;-71
2023/05/17 04:08:35;;;;;;;5.82;2.20;;;6.50;1.00;;;;;;7365415;19;20018;-71
2023/05/17 04:11:09;;;;;;;8.23;2.72;;;6.60;1.00;;;;;;7366345;19;20011;-71
2023/05/17 04:13:42;;;;;;;6.63;2.45;;;6.60;1.00;;;;;;7389658;19;20015;-72
2023/05/17 04:16:12;;;;;;;8.05;2.10;;;6.70;1.00;;;;;;7367636;19;20038;-71
2023/05/17 04:18:44;;;;;;;6.65;2.47;;;6.80;1.00;;;;;;7366147;19;20015;-71
2023/05/17 04:21:14;;;;;;;5.05;2.13;;;7.00;1.00;;;;;;7366461;19;20529;-71
2023/05/17 04:23:44;;;;;;;5.85;2.28;;;7.50;1.00;;;;;;7367588;19;20569;-71
2023/05/17 04:26:14;;;;;;;3.97;2.10;;;7.60;1.00;;;;;;7368396;19;20033;-71
2023/05/17 04:28:47;;;;;;;4.57;2.38;;;7.20;1.00;;;;;;7387165;19;20364;-71
2023/05/17 04:31:18;;;;;;;5.30;2.20;;;7.20;1.00;;;;;;7367535;19;20030;-71
2023/05/17 04:33:48;;;;;;;6.65;2.42;;;7.50;1.00;;;;;;7366364;19;20047;-71
2023/05/17 04:36:19;;;;;;;6.38;2.30;;;7.60;1.00;;;;;;7367971;19;20003;-71
2023/05/17 04:38:49;;;;;;;6.10;2.28;;;7.50;1.00;;;;;;7366481;19;20014;-71
2023/05/17 04:41:19;;;;;;;5.93;2.67;;;7.60;1.00;;;;;;7365965;19;20025;-71
2023/05/17 04:43:52;;;;;;;7.40;2.17;;;7.50;1.00;;;;;;7388429;19;20011;-71
2023/05/17 04:46:21;;;;;;;3.08;2.00;;;7.50;1.00;;;;;;7366543;19;20082;-71
2023/05/17 04:48:52;;;;;;;9.00;2.55;;;7.70;1.00;;;;;;7364592;19;20101;-71
2023/05/17 04:51:22;;;;;;;5.68;2.00;;;7.80;1.00;;;;;;7366609;19;20081;-71
2023/05/17 04:53:52;;;;;;;6.97;2.20;;;8.60;1.00;;;;;;7366759;19;20007;-72
2023/05/17 04:56:22;;;;;;;5.68;2.00;;;9.40;1.00;;;;;;7367056;19;20004;-72
2023/05/17 04:58:55;;;;;;;6.03;2.20;;;10.30;1.00;;;;;;7386920;19;20014;-72
2023/05/17 05:01:25;;;;;;;6.47;2.10;;;10.00;1.00;;;;;;7366047;19;20013;-72
2023/05/17 05:03:55;;;;;;;3.85;2.00;;;9.30;1.00;;;;;;7365077;19;20011;-72
2023/05/17 05:06:26;;;;;;;4.40;2.33;;;8.30;1.00;;;;;;7367345;19;20098;-72
2023/05/17 05:08:55;;;;;;;4.45;1.75;;;8.00;1.00;;;;;;7371212;19;20025;-72
2023/05/17 05:11:25;;;;;;;7.75;2.55;;;8.10;1.00;;;;;;7374027;19;20033;-72
2023/05/17 05:13:58;;;;;;;6.30;2.60;;;8.30;1.00;;;;;;7392131;19;20110;-72
2023/05/17 05:16:28;;;;;;;6.70;2.00;;;8.10;1.00;;;;;;7373796;19;20098;-72
2023/05/17 05:18:58;;;;;;;6.35;2.40;;;8.20;1.00;;;;;;7371146;19;20010;-72
2023/05/17 05:21:28;;;;;;;7.57;2.30;;;8.30;1.00;;;;;;7373092;19;20010;-72
2023/05/17 05:23:58;;;;;;;4.07;2.13;;;8.30;1.00;;;;;;7371827;19;20017;-71
2023/05/17 05:26:28;;;;;;;5.65;2.05;;;8.30;1.00;;;;;;7373868;19;20011;-72
2023/05/17 05:29:00;;;;;;;6.00;2.20;;;8.30;1.00;;;;;;7391072;19;20015;-71
2023/05/17 05:31:31;;;;;;;4.75;2.20;;;8.70;1.00;;;;;;7372638;19;20018;-71
2023/05/17 05:34:01;;;;;;;7.57;2.17;;;9.40;1.00;;;;;;7371074;19;20022;-71
2023/05/17 05:36:31;;;;;;;6.13;2.53;;;9.60;1.00;;;;;;7372123;19;20011;-71
2023/05/17 05:39:01;;;;;;;6.90;2.38;;;9.40;1.00;;;;;;7370523;19;20038;-71
2023/05/17 05:41:31;;;;;;;3.97;2.28;;;9.70;1.00;;;;;;7372816;19;20015;-71
2023/05/17 05:44:04;;;;;;;5.50;2.30;;;10.20;1.00;;;;;;7385708;19;20006;-71
2023/05/17 05:46:34;;;;;;;6.63;2.25;;;11.30;1.00;;;;;;7393986;19;20417;-71
2023/05/17 05:49:04;;;;;;;6.22;2.55;;;11.30;1.00;;;;;;7368530;19;20007;-71
2023/05/17 05:51:34;;;;;;;3.05;1.98;;;11.30;1.00;;;;;;7371915;19;20471;-70
2023/05/17 05:54:04;;;;;;;6.80;2.42;;;10.40;1.00;;;;;;7371858;19;20019;-71
2023/05/17 05:56:34;;;;;;;6.13;2.10;;;9.10;1.00;;;;;;7371961;19;20377;-72
2023/05/17 05:59:06;;;;;;;6.70;2.22;;;8.70;1.00;;;;;;7370036;19;20149;-71
2023/05/17 06:01:36;;;;;;;5.68;2.33;;;9.10;1.00;;;;;;7392808;19;20078;-71
2023/05/17 06:04:07;;;;;;;6.00;2.20;;;9.10;1.00;;;;;;7371174;19;20085;-71
2023/05/17 06:06:37;;;;;;;7.18;2.22;;;9.10;1.00;;;;;;7371457;19;20440;-72
2023/05/17 06:09:10;;;;;;;10.07;2.35;;;9.50;1.00;;;;;;7368637;19;20007;-72
2023/05/17 06:11:41;;;;;;;5.35;2.35;;;10.20;1.00;;;;;;7372244;19;20363;-71
2023/05/17 06:14:13;;;;;;;8.50;2.35;;;11.10;1.00;;;;;;7371716;19;20022;-72
2023/05/17 06:16:43;;;;;;;4.65;2.03;;;11.40;1.00;;;;;;7393015;19;20042;-72
2023/05/17 06:19:13;;;;;;;5.63;2.30;;;12.20;1.00;;;;;;7368479;19;20006;-72
2023/05/17 06:21:43;;;;;;;6.95;2.72;;;12.90;1.00;;;;;;7372185;19;20341;-72
2023/05/17 06:24:13;;;;;;;7.65;3.40;;;12.80;1.00;;;;;;7371020;19;20074;-73
2023/05/17 06:26:43;;;;;;;9.63;2.50;;;12.40;1.00;;;;;;7371397;19;20082;-71
2023/05/17 06:29:15;;;;;;;12.25;2.47;;;12.70;1.00;;;;;;7368606;19;20018;-72
2023/05/17 06:31:45;;;;;;;8.50;2.55;;;12.30;1.00;;;;;;7393209;19;20446;-72
2023/05/17 06:34:15;;;;;;;5.80;2.28;;;11.40;1.00;;;;;;7370745;19;20006;-72
2023/05/17 06:36:45;;;;;;;5.38;2.00;;;10.60;1.00;;;;;;7371029;19;20040;-72
2023/05/17 06:39:15;;;;;;;7.00;2.80;;;10.10;1.00;;;;;;7369433;19;20470;-72
2023/05/17 06:41:45;;;;;;;5.32;2.58;;;10.30;1.00;;;;;;7371112;19;20015;-72
2023/05/17 06:44:18;;;;;;;5.70;2.40;;;10.20;1.00;;;;;;7370507;19;20017;-72
2023/05/17 06:46:48;;;;;;;5.53;2.67;;;9.80;1.00;;;;;;7391562;19;20014;-72
2023/05/17 06:49:18;;;;;;;9.07;2.72;;;10.20;1.00;;;;;;7367117;19;20007;-72
2023/05/17 06:51:48;;;;;;;6.65;2.47;;;10.00;1.00;;;;;;7368534;19;20014;-71
2023/05/17 06:54:18;;;;;;;6.15;2.58;;;9.70;1.00;;;;;;7369892;19;20041;-72
2023/05/17 06:56:48;;;;;;;5.90;3.10;;;10.10;1.00;;;;;;7368688;19;20011;-71
2023/05/17 06:59:20;;;;;;;9.73;3.45;;;9.90;1.00;;;;;;7368224;19;20474;-73
2023/05/17 07:01:50;;;;;;;4.55;2.53;;;10.00;1.00;;;;;;7392166;19;20011;-71
2023/05/17 07:04:20;;;;;;;6.38;2.70;;;10.10;1.00;;;;;;7369615;19;20003;-71
2023/05/17 07:06:51;;;;;;;7.88;2.70;;;9.90;1.00;;;;;;7369330;19;20015;-72
2023/05/17 07:09:22;;;;;;;6.13;2.80;;;10.20;1.00;;;;;;7365198;19;20046;-72
2023/05/17 07:11:52;;;;;;;6.63;3.30;;;10.40;1.00;;;;;;7369288;19;20011;-72
2023/05/17 07:14:24;;;;;;;7.95;3.30;;;10.60;1.00;;;;;;7369426;19;20000;-72
2023/05/17 07:16:54;;;;;;;8.18;3.30;;;10.80;1.00;;;;;;7390927;19;20032;-72
2023/05/17 07:19:25;;;;;;;7.13;3.03;;;10.90;1.00;;;;;;7366198;19;20352;-72
2023/05/17 07:21:55;;;;;;;5.20;2.65;;;11.20;1.00;;;;;;7368168;19;20017;-72
2023/05/17 07:24:25;;;;;;;8.85;3.00;;;11.40;1.00;;;;;;7368140;19;20348;-73
2023/05/17 07:26:55;;;;;;;6.00;3.10;;;11.50;1.00;;;;;;7367625;19;20014;-72
2023/05/17 07:29:27;;;;;;;6.45;3.17;;;11.60;1.00;;;;;;7364594;19;20044;-73
2023/05/17 07:31:57;;;;;;;8.63;3.13;;;11.30;1.00;;;;;;7390267;19;20415;-73
2023/05/17 07:34:27;;;;;;;7.65;2.80;;;11.40;1.00;;;;;;7368863;19;20086;-71
2023/05/17 07:36:57;;;;;;;7.60;2.63;;;11.50;1.00;;;;;;7367302;19;20352;-72
2023/05/17 07:39:27;;;;;;;6.75;2.92;;;11.60;1.00;;;;;;7365449;19;20018;-72
2023/05/17 07:41:57;;;;;;;5.35;2.80;;;11.50;1.00;;;;;;7367622;19;20073;-71
2023/05/17 07:44:30;;;;;;;5.53;2.50;;;11.30;1.00;;;;;;7367993;19;20466;-71
2023/05/17 07:47:01;;;;;;;4.63;2.77;;;11.60;1.00;;;;;;7390483;19;20010;-72
2023/05/17 07:49:32;;;;;;;7.28;2.28;;;11.40;1.00;;;;;;7365430;19;20506;-72
2023/05/17 07:52:04;;;;;;;5.80;3.00;;;11.10;1.00;;;;;;7367971;19;20025;-72
2023/05/17 07:54:36;;;;;;;7.85;2.70;;;10.90;1.00;;;;;;7368067;19;20018;-72
2023/05/17 07:57:06;;;;;;;6.05;3.05;;;11.20;1.00;;;;;;7368033;19;20021;-72
2023/05/17 07:59:41;;;;;;;8.60;3.25;;;11.30;1.00;;;;;;7364761;19;20033;-72
2023/05/17 08:02:11;;;;;;;7.40;3.13;;;11.40;1.00;;;;;;7367850;19;20018;-72
2023/05/17 08:04:41;;;;;;;7.60;2.63;;;11.10;1.00;;;;;;7388869;19;20010;-72
2023/05/17 08:07:11;;;;;;;7.95;2.55;;;11.10;1.00;;;;;;7367975;19;20015;-72
2023/05/17 08:09:44;;;;;;;6.70;2.90;;;10.80;1.00;;;;;;7364829;19;20481;-72
2023/05/17 08:12:14;;;;;;;6.70;2.45;;;10.90;1.00;;;;;;7368428;19;20093;-71
2023/05/17 08:14:46;;;;;;;5.07;2.78;;;11.00;1.00;;;;;;7367911;19;20014;-72
2023/05/17 08:17:16;;;;;;;6.65;3.03;;;11.10;1.00;;;;;;7368346;19;20077;-72
2023/05/17 08:19:46;;;;;;;6.65;2.92;;;10.80;1.00;;;;;;7386544;19;20032;-72
2023/05/17 08:22:17;;;;;;;10.07;3.40;;;11.00;1.00;;;;;;7368303;19;20046;-72
2023/05/17 08:24:50;;;;;;;8.73;3.00;;;10.90;1.00;;;;;;7366144;19;20055;-72
2023/05/17 08:27:20;;;;;;;7.47;3.13;;;10.90;1.00;;;;;;7367807;19;20011;-73
2023/05/17 08:29:54;;;;;;;6.95;2.88;;;11.00;1.00;;;;;;7363309;19;20036;-72
2023/05/17 08:32:24;;;;;;;5.72;2.83;;;10.90;1.00;;;;;;7367480;19;20118;-73
2023/05/17 08:34:55;;;;;;;8.20;2.95;;;11.10;1.00;;;;;;7387975;19;20424;-71
2023/05/17 08:37:25;;;;;;;9.10;3.22;;;11.10;1.00;;;;;;7366624;19;20517;-71
2023/05/17 08:39:55;;;;;;;10.90;3.10;;;11.20;1.00;;;;;;7362716;19;20015;-72
2023/05/17 08:42:26;;;;;;;3.95;2.55;;;11.20;1.00;;;;;;7366979;19;20079;-72
2023/05/17 08:44:59;;;;;;;4.75;2.70;;;11.60;1.00;;;;;;7366475;19;20018;-72
2023/05/17 08:47:32;;;;;;;8.38;3.25;;;11.40;1.00;;;;;;7367023;19;20037;-72
2023/05/17 08:50:04;;;;;;;9.38;3.38;;;11.80;1.00;;;;;;7367651;19;20042;-73
2023/05/17 08:52:35;;;;;;;6.70;2.97;;;11.80;1.00;;;;;;7388752;19;20600;-72
2023/05/17 08:55:07;;;;;;;6.93;3.03;;;12.10;1.00;;;;;;7365045;19;20033;-71
2023/05/17 08:57:38;;;;;;;5.45;2.88;;;11.80;1.00;;;;;;7361566;19;20014;-71
2023/05/17 09:00:14;;;;;;;8.15;3.08;;;11.80;1.00;;;;;;7362610;19;20461;-71
2023/05/17 09:02:44;;;;;;;7.60;3.38;;;12.10;1.00;;;;;;7366351;19;20019;-71
2023/05/17 09:05:15;;;;;;;5.60;2.92;;;12.40;1.00;;;;;;7366110;19;20021;-70
2023/05/17 09:07:51;;;;;;;6.32;3.30;;;12.30;1.00;;;;;;7386952;19;20023;-71
2023/05/17 09:10:21;;;;;;;8.55;3.05;;;12.40;1.00;;;;;;7362981;19;20007;-71
2023/05/17 09:12:52;;;;;;;10.25;3.92;;;12.60;1.00;;;;;;7365352;19;20013;-72
2023/05/17 09:15:26;;;;;;;7.65;3.15;;;12.60;1.00;;;;;;7365486;19;20014;-72
2023/05/17 09:17:57;;;;;;;5.10;2.78;;;13.10;1.00;;;;;;7364051;19;20058;-72
2023/05/17 09:20:32;;;;;;;7.72;3.00;;;12.50;1.00;;;;;;7364191;19;20011;-71
2023/05/17 09:23:03;;;;;;;4.93;2.35;;;12.20;1.00;;;;;;7371334;19;20491;-71
2023/05/17 09:25:33;;;;;;;4.05;2.75;;;12.60;1.00;;;;;;7387204;19;20364;-72
2023/05/17 09:28:06;;;;;;;6.90;2.60;;;12.70;1.00;;;;;;7364351;19;20014;-72
2023/05/17 09:30:41;;;;;;;7.10;2.97;;;12.30;1.00;;;;;;7362947;19;20031;-71
2023/05/17 09:33:12;;;;;;;5.70;3.65;;;12.60;1.00;;;;;;7365740;19;20028;-72
2023/05/17 09:35:47;;;;;;;5.45;2.55;;;12.80;1.00;;;;;;7365759;19;20090;-70
2023/05/17 09:38:17;;;;;;;6.85;2.92;;;12.40;1.00;;;;;;7364073;19;20164;-70
2023/05/17 09:40:49;;;;;;;6.70;3.03;;;12.40;1.00;;;;;;7384512;19;20159;-71
2023/05/17 09:43:25;;;;;;;9.40;2.78;;;12.80;1.00;;;;;;7364412;19;20038;-71
2023/05/17 09:46:01;;;;;;;8.38;2.47;;;13.00;1.00;;;;;;7365001;19;20017;-71
2023/05/17 09:48:31;;;;;;;7.53;2.65;;;12.80;1.00;;;;;;7362024;19;20703;-72
2023/05/17 09:51:02;;;;;;;5.80;2.78;;;13.00;1.00;;;;;;7362962;19;20027;-71
2023/05/17 09:53:37;;;;;;;6.35;3.17;;;13.00;1.00;;;;;;7366118;19;20038;-71
2023/05/17 09:56:08;;;;;;;7.00;2.80;;;13.50;1.00;;;;;;7372257;19;20018;-72
2023/05/17 09:58:39;;;;;;;7.90;3.08;;;13.40;1.00;;;;;;7391062;19;20079;-71
2023/05/17 10:01:12;;;;;;;6.43;2.83;;;13.20;1.00;;;;;;7371475;19;20014;-71
2023/05/17 10:03:42;;;;;;;6.75;3.15;;;13.30;1.00;;;;;;7371827;19;20018;-71
2023/05/17 10:06:14;;;;;;;6.95;2.90;;;13.00;1.00;;;;;;7372134;19;20034;-71
2023/05/17 10:09:03;;;;;;;7.90;3.10;;;13.50;1.00;;;;;;7368601;19;20010;-72
2023/05/17 10:11:35;;;;;;;6.05;3.10;;;13.30;1.00;;;;;;7371981;19;20011;-73
2023/05/17 10:14:12;;;;;;;8.35;2.72;;;13.00;1.00;;;;;;7371705;19;20027;-71
2023/05/17 10:16:45;;;;;;;7.40;2.83;;;12.90;1.00;;;;;;7393690;19;20023;-72
2023/05/17 10:19:18;;;;;;;10.43;2.67;;;12.90;1.00;;;;;;7368930;19;20015;-72
2023/05/17 10:21:51;;;;;;;6.70;2.90;;;13.20;1.00;;;;;;7370508;19;20017;-72
2023/05/17 10:24:22;;;;;;;5.43;3.47;;;13.50;1.00;;;;;;7370557;19;20038;-72
2023/05/17 10:26:52;;;;;;;5.32;2.47;;;13.30;1.00;;;;;;7370551;19;20089;-72
2023/05/17 10:29:22;;;;;;;6.78;2.80;;;13.20;1.00;;;;;;7368901;19;20008;-72
2023/05/17 10:31:56;;;;;;;6.80;2.60;;;13.30;1.00;;;;;;7391098;19;20370;-72
2023/05/17 10:34:29;;;;;;;6.93;2.97;;;13.40;1.00;;;;;;7368681;19;20031;-70
2023/05/17 10:37:01;;;;;;;4.37;2.73;;;13.40;1.00;;;;;;7370372;19;20792;-71
2023/05/17 10:39:33;;;;;;;4.78;2.88;;;13.90;1.00;;;;;;7366400;19;20626;-72
2023/05/17 10:42:06;;;;;;;6.95;3.10;;;13.80;1.00;;;;;;7371069;19;20119;-72
2023/05/17 10:44:44;;;;;;;6.63;3.22;;;13.20;1.00;;;;;;7359268;19;20018;-72
2023/05/17 10:47:17;;;;;;;7.60;3.33;;;13.30;1.00;;;;;;7371088;19;20015;-71
2023/05/17 10:49:50;;;;;;;6.93;2.55;;;13.20;1.00;;;;;;7389617;19;20033;-71
2023/05/17 10:52:23;;;;;;;6.82;2.78;;;13.60;1.00;;;;;;7369168;19;20007;-72
2023/05/17 10:54:53;;;;;;;6.60;3.08;;;13.40;1.00;;;;;;7369290;19;20038;-71
2023/05/17 10:57:36;;;;;;;12.25;3.40;;;13.10;1.00;;;;;;7369977;19;20340;-71
2023/05/17 11:00:11;;;;;;;6.90;3.20;;;13.30;1.00;;;;;;7367743;19;20054;-72
2023/05/17 11:02:44;;;;;;;14.27;3.75;;;13.50;1.00;;;;;;7369366;19;20484;-71
2023/05/17 11:05:25;;;;;;;6.38;3.03;;;12.90;1.00;;;;;;7366259;19;20392;-72
2023/05/17 11:08:16;;;;;;;4.32;2.40;;;13.40;1.00;;;;;;7390247;19;20014;-71
2023/05/17 11:11:11;;;;;;;4.20;2.63;;;13.10;1.00;;;;;;7367843;19;20018;-71
2023/05/17 11:13:51;;;;;;;5.53;3.10;;;12.80;1.00;;;;;;7363038;19;20215;-72
2023/05/17 11:16:24;;;;;;;6.32;2.90;;;12.70;1.00;;;;;;7366959;19;20031;-72
2023/05/17 11:19:04;;;;;;;7.75;2.58;;;13.10;1.00;;;;;;7365654;19;20014;-73
2023/05/17 11:21:34;;;;;;;6.40;2.55;;;13.20;1.00;;;;;;7367493;19;20838;-72
2023/05/17 11:24:05;;;;;;;5.57;3.03;;;13.10;1.00;;;;;;7368644;19;20081;-72
2023/05/17 11:26:38;;;;;;;6.80;2.88;;;13.40;1.00;;;;;;7367949;19;20010;-72
2023/05/17 11:29:11;;;;;;;5.25;2.83;;;13.10;1.00;;;;;;7366418;19;20010;-71
2023/05/17 11:31:46;;;;;;;6.13;2.75;;;13.00;1.00;;;;;;7389454;19;20018;-72
2023/05/17 11:34:22;;;;;;;5.47;2.65;;;13.00;1.00;;;;;;7367768;19;20010;-72
2023/05/17 11:36:53;;;;;;;6.32;2.78;;;13.00;1.00;;;;;;7368222;19;20021;-72
2023/05/17 11:39:25;;;;;;;6.25;2.72;;;12.90;1.00;;;;;;7365403;19;20010;-73
2023/05/17 11:41:57;;;;;;;8.55;2.97;;;13.20;1.00;;;;;;7368517;19;20006;-73
2023/05/17 11:44:31;;;;;;;6.03;2.58;;;13.00;1.00;;;;;;7367378;19;20017;-72
2023/05/17 11:47:04;;;;;;;6.07;3.03;;;12.90;1.00;;;;;;7388497;19;20017;-74
2023/05/17 11:49:41;;;;;;;5.90;2.97;;;13.20;1.00;;;;;;7366085;19;20018;-72
2023/05/17 11:52:11;;;;;;;6.60;2.85;;;13.10;1.00;;;;;;7367293;19;20520;-72
2023/05/17 11:54:41;;;;;;;6.90;3.00;;;13.50;1.00;;;;;;7367701;19;20022;-73
2023/05/17 11:57:15;;;;;;;6.25;2.78;;;13.20;1.00;;;;;;7366439;19;20035;-72
2023/05/17 11:59:45;;;;;;;6.07;2.43;;;13.20;1.00;;;;;;7365399;19;20470;-72
2023/05/17 12:02:28;;;;;;;6.70;2.55;;;13.00;1.00;;;;;;7369425;19;20284;-71
2023/05/17 12:05:01;;;;;;;6.00;2.90;;;12.80;1.00;;;;;;7388536;19;20029;-71
2023/05/17 12:07:32;;;;;;;7.72;2.60;;;13.10;1.00;;;;;;7366641;19;20010;-72
2023/05/17 12:10:01;;;;;;;6.93;2.67;;;13.30;1.00;;;;;;7364246;19;20023;-72
2023/05/17 12:12:32;;;;;;;4.28;2.35;;;13.10;1.00;;;;;;7367198;19;20415;-72
2023/05/17 12:15:02;;;;;;;3.55;2.15;;;12.90;1.00;;;;;;7366077;19;20478;-72
2023/05/17 12:17:37;;;;;;;10.88;2.88;;;13.00;1.00;;;;;;7365591;19;20010;-72
2023/05/17 12:20:13;;;;;;;5.70;2.63;;;13.10;1.00;;;;;;7365087;19;20423;-72
2023/05/17 12:22:58;;;;;;;5.50;2.83;;;12.90;1.00;;;;;;7389000;19;20367;-72
2023/05/17 12:25:31;;;;;;;6.50;2.58;;;13.50;1.00;;;;;;7366041;19;20062;-72
2023/05/17 12:28:21;;;;;;;9.32;3.13;;;13.20;1.00;;;;;;7362143;19;20052;-72
2023/05/17 12:30:56;;;;;;;6.05;3.10;;;12.90;1.00;;;;;;7365985;19;20015;-72
2023/05/17 12:33:26;;;;;;;7.82;2.85;;;13.30;1.00;;;;;;7364499;19;20025;-72
2023/05/17 12:36:00;;;;;;;4.70;2.35;;;13.50;1.00;;;;;;7367653;19;20006;-71
2023/05/17 12:38:31;;;;;;;6.28;2.80;;;13.50;1.00;;;;;;7363737;19;20123;-71
2023/05/17 12:41:05;;;;;;;5.47;3.10;;;13.90;1.00;;;;;;7384038;19;20047;-70
2023/05/17 12:43:36;;;;;;;6.75;2.92;;;13.80;1.00;;;;;;7386811;19;20013;-72
2023/05/17 12:46:08;;;;;;;6.03;2.90;;;13.30;1.00;;;;;;7365415;19;20029;-72
2023/05/17 12:48:39;;;;;;;7.53;3.00;;;13.40;1.00;;;;;;7363741;19;20040;-71
2023/05/17 12:51:15;;;;;;;7.45;2.80;;;13.20;1.00;;;;;;7365062;19;20093;-72
2023/05/17 12:53:46;;;;;;;6.10;2.80;;;13.40;1.00;;;;;;7364875;19;20066;-73
2023/05/17 12:56:21;;;;;;;5.82;2.35;;;13.30;1.00;;;;;;7363059;19;20027;-73
2023/05/17 12:59:12;;;;;;;5.53;3.03;;;13.50;1.00;;;;;;7380982;19;20037;-72
2023/05/17 13:01:45;;;;;;;6.45;2.67;;;13.50;1.00;;;;;;7364266;19;20457;-71
2023/05/17 13:04:16;;;;;;;4.85;2.53;;;13.20;1.00;;;;;;7362805;19;20007;-71
2023/05/17 13:06:50;;;;;;;5.22;2.88;;;13.30;1.00;;;;;;7362615;19;20051;-72
2023/05/17 13:09:22;;;;;;;5.88;2.72;;;13.60;1.00;;;;;;7360971;19;20014;-72
2023/05/17 13:11:53;;;;;;;6.32;3.13;;;13.90;1.00;;;;;;7362741;19;20023;-73
2023/05/17 13:14:36;;;;;;;5.57;2.70;;;14.00;1.00;;;;;;7360623;19;20011;-73
2023/05/17 13:17:10;;;;;;;7.43;2.97;;;13.90;1.00;;;;;;7364168;19;20026;-75
2023/05/17 13:19:40;;;;;;;11.98;3.95;;;14.00;1.00;;;;;;7384739;19;20031;-72
2023/05/17 13:22:14;;;;;;;6.03;3.13;;;13.90;1.00;;;;;;7362029;19;20015;-72
2023/05/17 13:24:45;;;;;;;7.80;3.22;;;14.20;1.00;;;;;;7363212;19;20011;-72